Time;durP1;ratioP1;P1;durP2;ratioP2;P2;SDS_P1;SDS_P2;PMS_P1;PMS_P2;Temp;Humidity;BMP_temperature;BMP_pressure;BME280_temperature;BME280_humidity;BME280_pressure;Samples;Min_cycle;Max_cycle;Signal;HPM_P1;HPM_P2
2023/01/14 00:01:00;;;;;;;;;;;;;;;7.10;100.00;99979.91;5041821;28;20364;-91
2023/01/14 00:03:27;;;;;;;;;;;;;;;7.11;100.00;99988.66;5039259;28;19926;-85
2023/01/14 00:05:59;;;;;;;;;;;;;;;7.16;100.00;99990.25;5032405;28;19960;-93
2023/01/14 00:08:34;;;;;;;;;;;;;;;7.18;100.00;99988.47;5049924;28;20376;-91
2023/01/14 00:11:15;;;;;;;;;;;;;;;7.23;100.00;99993.63;5025205;28;19928;-92
2023/01/14 00:13:41;;;;;;;;;;;;;;;7.24;100.00;99997.97;5039571;28;19971;-85
2023/01/14 00:16:07;;;;;;;;;;;;;;;7.28;100.00;99994.34;5034807;28;19964;-86
2023/01/14 00:18:36;;;;;;;;;;;;;;;7.33;100.00;99999.50;5039292;28;19975;-91
2023/01/14 00:21:01;;;;;;;;;;;;;;;7.34;100.00;100003.84;5019872;28;20019;-90
2023/01/14 00:23:27;;;;;;;;;;;;;;;7.36;100.00;99995.00;5050539;28;19975;-88
2023/01/14 00:25:52;;;;;;;;;;;;;;;7.39;100.00;99994.09;5042294;28;19921;-86
2023/01/14 00:28:18;;;;;;;;;;;;;;;7.42;100.00;99983.47;5047422;28;19928;-89
2023/01/14 00:30:43;;;;;;;;;;;;;;;7.45;100.00;99984.22;5053032;28;19960;-91
2023/01/14 00:33:08;;;;;;;;;;;;;;;7.48;100.00;99992.97;5035149;28;20035;-92
2023/01/14 00:35:34;;;;;;;;;;;;;;;8.33;100.00;99987.00;5041790;28;19921;-83
2023/01/14 00:38:01;;;;;;;;;;;;;;;8.05;100.00;99989.59;5034047;28;20033;-88
2023/01/14 00:40:26;;;;;;;;;;;;;;;7.80;100.00;99994.69;5020991;28;19921;-90
2023/01/14 00:42:52;;;;;;;;;;;;;;;7.73;100.00;99987.88;5053529;28;19916;-89
2023/01/14 00:45:17;;;;;;;;;;;;;;;7.72;100.00;99983.50;5040297;28;19921;-88
2023/01/14 00:47:42;;;;;;;;;;;;;;;7.70;100.00;99983.53;5016063;28;19917;-90
2023/01/14 00:50:08;;;;;;;;;;;;;;;7.71;100.00;99968.59;5031999;28;19921;-88
2023/01/14 00:52:33;;;;;;;;;;;;;;;7.73;100.00;99966.78;5026819;28;20281;-87
2023/01/14 00:54:58;;;;;;;;;;;;;;;7.75;100.00;99970.22;5036855;28;19971;-88
2023/01/14 00:57:24;;;;;;;;;;;;;;;7.76;100.00;99972.81;5046155;28;19924;-88
2023/01/14 00:59:49;;;;;;;;;;;;;;;7.78;100.00;99973.63;5049207;28;20440;-85
2023/01/14 01:02:14;;;;;;;;;;;;;;;7.77;100.00;99968.41;5032757;28;19921;-88
2023/01/14 01:04:39;;;;;;;;;;;;;;;7.80;100.00;99963.94;5015097;28;19940;-89
2023/01/14 01:07:05;;;;;;;;;;;;;;;7.80;100.00;99961.28;5033081;28;19925;-89
2023/01/14 01:09:30;;;;;;;;;;;;;;;7.84;100.00;99966.47;5022228;28;20000;-89
2023/01/14 01:11:56;;;;;;;;;;;;;;;7.87;100.00;99971.69;5042339;28;19925;-87
2023/01/14 01:14:21;;;;;;;;;;;;;;;7.88;100.00;99981.28;5025322;28;19924;-89
2023/01/14 01:16:46;;;;;;;;;;;;;;;7.89;100.00;99986.53;5038934;28;19952;-90
2023/01/14 01:19:11;;;;;;;;;;;;;;;7.92;100.00;99989.09;5051946;28;19956;-89
2023/01/14 01:21:37;;;;;;;;;;;;;;;7.94;100.00;100002.22;5036453;28;19939;-89
2023/01/14 01:24:02;;;;;;;;;;;;;;;7.94;100.00;99986.41;5052140;28;20061;-88
2023/01/14 01:26:27;;;;;;;;;;;;;;;7.95;100.00;99993.41;5038696;28;20372;-88
2023/01/14 01:28:54;;;;;;;;;;;;;;;7.97;100.00;99991.59;5057209;28;19913;-88
2023/01/14 01:31:21;;;;;;;;;;;;;;;7.96;100.00;99980.19;5027274;28;19921;-87
2023/01/14 01:33:46;;;;;;;;;;;;;;;7.99;100.00;99980.09;5035162;28;20277;-89
2023/01/14 01:36:13;;;;;;;;;;;;;;;8.00;100.00;99976.53;5027632;28;19928;-91
2023/01/14 01:38:39;;;;;;;;;;;;;;;8.03;100.00;99978.22;5032797;23;19925;-92
2023/01/14 05:59:25;;;;;;;;;;;;;;;6.87;100.00;99706.50;5286644;23;19968;-84
2023/01/14 06:07:18;;;;;;;;;;;;;;;7.15;100.00;99687.25;5038821;28;20399;-84
2023/01/14 06:09:43;;;;;;;;;;;;;;;7.21;100.00;99676.53;5037043;28;19920;-86
2023/01/14 06:12:08;;;;;;;;;;;;;;;7.27;100.00;99673.69;5044768;28;19929;-84
2023/01/14 06:14:34;;;;;;;;;;;;;;;7.30;100.00;99673.59;5038616;28;19921;-85
2023/01/14 06:17:02;;;;;;;;;;;;;;;7.39;100.00;99673.31;5034897;28;20316;-85
2023/01/14 06:19:27;;;;;;;;;;;;;;;7.43;100.00;99669.66;5025202;28;19928;-84
2023/01/14 06:21:54;;;;;;;;;;;;;;;7.48;100.00;99660.75;5039856;28;19917;-90
2023/01/14 06:24:20;;;;;;;;;;;;;;;7.52;100.00;99662.41;5042776;28;20051;-93
2023/01/14 06:26:45;;;;;;;;;;;;;;;7.56;100.00;99661.38;5044369;28;19969;-85
2023/01/14 06:29:11;;;;;;;;;;;;;;;7.58;100.00;99662.19;5036073;28;19912;-85
2023/01/14 06:31:37;;;;;;;;;;;;;;;7.64;100.00;99654.06;5044998;28;19988;-85
2023/01/14 06:34:03;;;;;;;;;;;;;;;7.67;100.00;99646.03;5042349;28;19924;-87
2023/01/14 06:36:30;;;;;;;;;;;;;;;7.71;100.00;99639.78;5035484;28;19921;-87
2023/01/14 06:38:57;;;;;;;;;;;;;;;7.76;100.00;99645.75;5037928;28;19927;-86
2023/01/14 06:41:23;;;;;;;;;;;;;;;7.81;100.00;99633.25;5037723;28;19913;-86
2023/01/14 06:43:48;;;;;;;;;;;;;;;7.82;100.00;99636.78;5036305;28;20035;-87
2023/01/14 06:46:14;;;;;;;;;;;;;;;7.87;100.00;99641.91;5022962;28;19974;-87
2023/01/14 06:48:40;;;;;;;;;;;;;;;7.89;100.00;99635.66;5046780;28;19988;-89
2023/01/14 06:51:06;;;;;;;;;;;;;;;7.92;100.00;99634.69;5050797;28;20378;-84
2023/01/14 06:53:32;;;;;;;;;;;;;;;7.93;100.00;99631.13;5048783;28;19917;-85
2023/01/14 09:19:24;;;;;;;;;;;;;;;6.81;100.00;99417.88;5054682;28;19943;-91
2023/01/14 09:21:49;;;;;;;;;;;;;;;6.46;100.00;99416.38;5054936;28;19980;-88
2023/01/14 09:24:15;;;;;;;;;;;;;;;6.25;100.00;99410.00;5054807;28;19916;-87
2023/01/14 09:26:40;;;;;;;;;;;;;;;6.20;100.00;99407.53;5035901;28;19917;-89
2023/01/14 09:29:06;;;;;;;;;;;;;;;6.08;100.00;99400.00;5055316;28;19925;-88
2023/01/14 09:31:31;;;;;;;;;;;;;;;6.07;100.00;99396.53;5053639;28;19924;-93
2023/01/14 09:33:56;;;;;;;;;;;;;;;5.94;100.00;99395.16;5055593;28;19917;-91
2023/01/14 09:36:21;;;;;;;;;;;;;;;5.86;100.00;99389.25;5042868;28;19952;-95
2023/01/14 09:38:47;;;;;;;;;;;;;;;5.81;100.00;99376.25;5064469;28;19917;-93
2023/01/14 09:41:22;;;;;;;;;;;;;;;5.72;100.00;99381.78;5058358;28;20000;-94
2023/01/14 09:43:51;;;;;;;;;;;;;;;5.74;100.00;99374.69;5060849;28;20305;-91
2023/01/14 09:46:16;;;;;;;;;;;;;;;5.62;100.00;99366.28;5057172;28;19917;-90
2023/01/14 09:48:44;;;;;;;;;;;;;;;5.63;100.00;99361.88;5056507;28;19916;-85
2023/01/14 09:51:17;;;;;;;;;;;;;;;5.59;100.00;99366.34;5056218;28;19923;-93
2023/01/14 09:54:04;;;;;;;;;;;;;;;5.55;100.00;99359.47;5038398;28;19917;-85
2023/01/14 09:56:51;;;;;;;;;;;;;;;5.48;100.00;99357.06;5037224;28;20062;-86
2023/01/14 09:59:25;;;;;;;;;;;;;;;5.43;100.00;99349.31;5038202;28;19923;-90
2023/01/14 10:02:04;;;;;;;;;;;;;;;5.40;100.00;99339.75;5038041;28;19948;-88
2023/01/14 10:04:48;;;;;;;;;;;;;;;5.36;100.00;99335.50;5051184;28;19921;-91
2023/01/14 10:07:17;;;;;;;;;;;;;;;5.30;100.00;99327.78;5038013;28;19940;-91
2023/01/14 10:09:45;;;;;;;;;;;;;;;5.29;100.00;99320.81;5038116;28;20294;-86
2023/01/14 10:12:15;;;;;;;;;;;;;;;5.17;100.00;99322.03;5038163;28;19946;-86
2023/01/14 10:14:45;;;;;;;;;;;;;;;5.28;100.00;99319.97;5056992;28;19916;-90
2023/01/14 10:17:12;;;;;;;;;;;;;;;5.25;100.00;99309.53;5056513;28;20011;-86
2023/01/14 10:19:37;;;;;;;;;;;;;;;5.18;100.00;99299.25;5055741;28;20402;-87
2023/01/14 10:22:07;;;;;;;;;;;;;;;5.27;100.00;99307.72;5056187;28;19966;-89
2023/01/14 10:24:32;;;;;;;;;;;;;;;5.18;100.00;99302.72;5054475;28;19923;-87
2023/01/14 10:26:58;;;;;;;;;;;;;;;5.16;100.00;99298.44;5055273;28;20003;-89
2023/01/14 10:29:26;;;;;;;;;;;;;;;5.18;100.00;99291.34;5055407;28;20004;-89
2023/01/14 10:31:54;;;;;;;;;;;;;;;5.09;100.00;99280.22;5054998;28;19917;-85
2023/01/14 10:34:36;;;;;;;;;;;;;;;5.08;100.00;99275.84;5055240;28;19916;-86
2023/01/14 10:37:02;;;;;;;;;;;;;;;5.25;100.00;99246.50;5037503;28;19921;-85
2023/01/14 10:39:27;;;;;;;;;;;;;;;5.94;100.00;99251.38;5054632;28;19939;-87
2023/01/14 10:41:52;;;;;;;;;;;;;;;6.32;100.00;99246.63;5054318;28;19923;-85
2023/01/14 10:44:23;;;;;;;;;;;;;;;6.53;100.00;99231.03;5054079;28;19917;-90
2023/01/14 10:46:48;;;;;;;;;;;;;;;6.75;100.00;99207.41;5054778;28;19987;-92
2023/01/14 10:49:22;;;;;;;;;;;;;;;6.84;100.00;99203.56;5037372;28;19917;-91
2023/01/14 10:51:49;;;;;;;;;;;;;;;6.99;100.00;99200.38;5037418;28;19917;-88
2023/01/14 10:54:17;;;;;;;;;;;;;;;7.06;100.00;99196.59;5054767;28;19982;-86
2023/01/14 10:56:51;;;;;;;;;;;;;;;7.13;100.00;99181.41;5053389;28;19917;-85
2023/01/14 10:59:38;;;;;;;;;;;;;;;7.25;100.00;99174.81;5054646;28;20007;-84
2023/01/14 11:02:03;;;;;;;;;;;;;;;7.30;100.00;99175.50;5054645;28;19912;-86
2023/01/14 11:04:29;;;;;;;;;;;;;;;7.34;100.00;99169.19;5054578;28;19917;-85
2023/01/14 11:06:55;;;;;;;;;;;;;;;7.41;100.00;99167.16;5054542;28;19917;-87
2023/01/14 11:09:28;;;;;;;;;;;;;;;7.48;100.00;99170.41;5054379;28;19970;-87
2023/01/14 11:11:54;;;;;;;;;;;;;;;7.53;100.00;99153.50;5053786;28;19921;-88
2023/01/14 11:14:26;;;;;;;;;;;;;;;7.58;100.00;99166.50;5036633;28;19917;-88
2023/01/14 11:16:51;;;;;;;;;;;;;;;7.62;100.00;99165.44;5036379;28;19917;-85
2023/01/14 11:19:21;;;;;;;;;;;;;;;7.67;100.00;99160.81;5036380;28;20394;-85
2023/01/14 11:21:53;;;;;;;;;;;;;;;7.71;100.00;99151.03;5036721;28;19917;-89
2023/01/14 11:24:30;;;;;;;;;;;;;;;7.74;100.00;99146.47;5054092;28;19925;-85
2023/01/14 11:27:05;;;;;;;;;;;;;;;7.84;100.00;99135.56;5036214;28;20299;-87
2023/01/14 11:29:35;;;;;;;;;;;;;;;7.83;100.00;99132.03;5036099;28;19917;-87
2023/01/14 11:32:08;;;;;;;;;;;;;;;7.87;100.00;99119.59;5036212;28;19917;-88
2023/01/14 11:34:49;;;;;;;;;;;;;;;7.93;100.00;99103.50;5053876;28;20391;-86
2023/01/14 11:37:17;;;;;;;;;;;;;;;7.99;100.00;99103.22;5053835;28;20379;-89
2023/01/14 11:39:46;;;;;;;;;;;;;;;8.03;100.00;99099.56;5052586;28;19916;-85
2023/01/14 11:42:35;;;;;;;;;;;;;;;8.03;100.00;99089.00;5053754;28;19916;-84
2023/01/14 11:45:14;;;;;;;;;;;;;;;8.10;100.00;99090.44;5045351;28;20004;-85
2023/01/14 11:47:50;;;;;;;;;;;;;;;8.11;100.00;99065.75;5053875;28;19917;-86
2023/01/14 11:50:18;;;;;;;;;;;;;;;8.14;100.00;99081.47;5036073;28;20391;-84
2023/01/14 11:53:00;;;;;;;;;;;;;;;8.22;100.00;99077.63;5053866;28;19921;-87
2023/01/14 11:55:27;;;;;;;;;;;;;;;8.28;100.00;99069.44;5034328;28;19920;-85
2023/01/14 11:57:52;;;;;;;;;;;;;;;8.33;100.00;99080.66;5053285;28;19917;-87
2023/01/14 12:00:20;;;;;;;;;;;;;;;8.32;100.00;99082.41;5053492;28;20276;-88
2023/01/14 12:02:48;;;;;;;;;;;;;;;8.34;100.00;99087.63;5054596;28;19912;-86
2023/01/14 12:05:18;;;;;;;;;;;;;;;8.34;100.00;99077.06;5053403;28;19917;-85
2023/01/14 12:07:45;;;;;;;;;;;;;;;8.35;100.00;99074.38;5035556;28;19913;-86
2023/01/14 12:10:20;;;;;;;;;;;;;;;8.39;100.00;99074.22;5034105;28;20015;-85
2023/01/14 12:18:36;;;;;;;;;;;;;;;8.45;100.00;99048.44;5053461;28;20018;-88
2023/01/14 12:21:02;;;;;;;;;;;;;;;8.42;100.00;99032.69;5035347;28;19917;-90
2023/01/14 12:23:29;;;;;;;;;;;;;;;8.45;100.00;99035.22;5053217;28;19924;-88
2023/01/14 12:25:56;;;;;;;;;;;;;;;8.46;100.00;99018.47;5052010;28;19924;-88
2023/01/14 12:28:34;;;;;;;;;;;;;;;8.48;100.00;99015.75;5053099;28;20004;-88
2023/01/14 12:31:11;;;;;;;;;;;;;;;8.48;100.00;99013.97;5035276;28;19924;-87
2023/01/14 12:33:45;;;;;;;;;;;;;;;8.49;100.00;99005.13;5035378;28;20402;-88
2023/01/14 12:36:14;;;;;;;;;;;;;;;8.52;100.00;98991.78;5035116;28;19917;-88
2023/01/14 12:47:05;;;;;;;;;;;;;;;8.58;100.00;98969.50;5052921;28;19927;-86
2023/01/14 12:49:31;;;;;;;;;;;;;;;8.59;100.00;98971.22;5052895;28;19921;-87
2023/01/14 12:51:59;;;;;;;;;;;;;;;8.57;100.00;98970.44;5035378;28;20387;-87
2023/01/14 12:54:27;;;;;;;;;;;;;;;8.59;100.00;98971.22;5034546;28;20019;-86
2023/01/14 12:56:55;;;;;;;;;;;;;;;8.60;100.00;98966.78;5052431;28;19924;-89
2023/01/14 12:59:29;;;;;;;;;;;;;;;8.62;100.00;98964.94;5052867;28;20004;-85
2023/01/14 13:02:18;;;;;;;;;;;;;;;8.61;100.00;98947.38;5052749;28;20428;-85
2023/01/14 13:04:49;;;;;;;;;;;;;;;8.34;100.00;98953.88;5043197;28;19917;-86
2023/01/14 13:07:20;;;;;;;;;;;;;;;7.15;100.00;98938.94;5052838;28;19956;-85
2023/01/14 13:09:50;;;;;;;;;;;;;;;6.81;100.00;98949.13;5055093;28;19921;-86
2023/01/14 13:12:36;;;;;;;;;;;;;;;6.48;100.00;98941.66;5038456;28;19920;-86
2023/01/14 13:15:23;;;;;;;;;;;;;;;6.38;100.00;98944.72;5056784;28;19924;-86
2023/01/14 13:17:52;;;;;;;;;;;;;;;6.18;100.00;98931.41;5056590;28;20287;-88
2023/01/14 13:20:17;;;;;;;;;;;;;;;6.12;100.00;98928.16;5056453;28;19917;-86
2023/01/14 13:22:45;;;;;;;;;;;;;;;6.02;100.00;98925.03;5056500;28;20020;-86
2023/01/14 13:25:18;;;;;;;;;;;;;;;5.99;100.00;98912.00;5055088;28;19917;-87
2023/01/14 13:27:44;;;;;;;;;;;;;;;5.83;100.00;98923.06;5056444;28;20116;-87
2023/01/14 13:30:18;;;;;;;;;;;;;;;5.73;100.00;98916.44;5056288;28;19916;-90
2023/01/14 13:33:03;;;;;;;;;;;;;;;5.77;100.00;98910.13;5038396;28;19967;-86
2023/01/14 13:35:30;;;;;;;;;;;;;;;5.71;100.00;98909.50;5056124;28;19921;-87
2023/01/14 13:37:56;;;;;;;;;;;;;;;5.67;100.00;98906.13;5056084;28;20106;-88
2023/01/14 13:40:26;;;;;;;;;;;;;;;5.66;100.00;98916.72;5054735;28;19920;-86
2023/01/14 13:43:00;;;;;;;;;;;;;;;5.63;100.00;98912.41;5056117;28;19912;-86
2023/01/14 13:45:27;;;;;;;;;;;;;;;5.62;100.00;98908.09;5056039;28;19972;-88
2023/01/14 13:47:53;;;;;;;;;;;;;;;5.55;100.00;98891.69;5055968;28;19912;-90
2023/01/14 13:50:18;;;;;;;;;;;;;;;5.55;100.00;98881.19;5055895;28;19963;-89
2023/01/14 13:52:55;;;;;;;;;;;;;;;5.52;100.00;98897.06;5056070;28;19916;-91
2023/01/14 13:55:20;;;;;;;;;;;;;;;5.41;100.00;98883.47;5054494;28;20380;-89
2023/01/14 13:57:51;;;;;;;;;;;;;;;5.38;100.00;98884.41;5055833;28;20015;-89
2023/01/14 14:00:16;;;;;;;;;;;;;;;5.39;100.00;98878.25;5037792;28;20023;-87
2023/01/14 14:02:46;;;;;;;;;;;;;;;5.31;100.00;98876.81;5055733;28;19955;-85
2023/01/14 14:05:15;;;;;;;;;;;;;;;5.36;100.00;98865.22;5037714;28;20368;-86
2023/01/14 14:07:43;;;;;;;;;;;;;;;5.36;100.00;98866.97;5055623;28;20284;-85
2023/01/14 14:10:10;;;;;;;;;;;;;;;5.20;100.00;98859.66;5036338;28;19924;-85
2023/01/14 14:15:24;;;;;;;;;;;;;;;5.19;100.00;98857.09;5055801;28;19924;-85
2023/01/14 14:17:55;;;;;;;;;;;;;;;5.25;100.00;98849.00;5055436;28;19924;-84
2023/01/14 14:20:22;;;;;;;;;;;;;;;5.24;100.00;98856.00;5055370;28;19921;-86
2023/01/14 14:22:50;;;;;;;;;;;;;;;5.18;100.00;98847.50;5055460;28;19917;-85
2023/01/14 14:25:20;;;;;;;;;;;;;;;5.15;100.00;98843.19;5036275;28;19920;-87
2023/01/14 14:27:46;;;;;;;;;;;;;;;5.18;100.00;98842.25;5055246;28;19924;-85
2023/01/14 14:30:21;;;;;;;;;;;;;;;5.03;100.00;98825.28;5055222;28;19920;-85
2023/01/14 14:32:46;;;;;;;;;;;;;;;5.07;100.00;98816.34;5055170;28;20431;-86
2023/01/14 14:35:13;;;;;;;;;;;;;;;5.12;100.00;98816.19;5055113;28;19944;-88
2023/01/14 14:37:39;;;;;;;;;;;;;;;5.05;100.00;98812.94;5055031;28;20011;-89
2023/01/14 14:40:06;;;;;;;;;;;;;;;5.19;100.00;98805.41;5053633;28;19952;-88
2023/01/14 14:42:32;;;;;;;;;;;;;;;5.90;100.00;98797.47;5037100;28;20364;-87
2023/01/14 14:44:59;;;;;;;;;;;;;;;6.27;100.00;98789.91;5055053;28;19921;-88
2023/01/14 14:47:25;;;;;;;;;;;;;;;6.48;100.00;98777.66;5055044;28;20354;-85
2023/01/14 14:49:53;;;;;;;;;;;;;;;6.63;100.00;98779.63;5054242;28;20198;-86
2023/01/14 14:52:19;;;;;;;;;;;;;;;6.77;100.00;98771.13;5054797;28;19970;-85
2023/01/14 14:54:49;;;;;;;;;;;;;;;6.87;100.00;98764.53;5053382;28;19921;-86
2023/01/14 14:57:17;;;;;;;;;;;;;;;6.96;100.00;98762.44;5054648;28;19917;-88
2023/01/14 14:59:42;;;;;;;;;;;;;;;7.01;100.00;98750.75;5054644;28;19995;-86
2023/01/14 15:02:23;;;;;;;;;;;;;;;7.11;100.00;98756.47;5054599;28;19913;-86
2023/01/14 15:04:50;;;;;;;;;;;;;;;7.17;100.00;98752.72;5054691;28;19928;-85
2023/01/14 15:07:16;;;;;;;;;;;;;;;7.22;100.00;98755.97;5054391;28;19917;-87
2023/01/14 15:09:44;;;;;;;;;;;;;;;7.28;100.00;98738.09;5053180;28;20007;-85
2023/01/14 15:12:16;;;;;;;;;;;;;;;7.31;100.00;98737.13;5054371;28;19921;-87
2023/01/14 15:14:43;;;;;;;;;;;;;;;7.35;100.00;98745.72;5054543;28;19925;-89
2023/01/14 15:17:17;;;;;;;;;;;;;;;7.37;100.00;98736.84;5036657;28;20056;-85
2023/01/14 15:19:43;;;;;;;;;;;;;;;7.43;100.00;98741.81;5054136;28;20379;-85
2023/01/14 15:22:10;;;;;;;;;;;;;;;7.48;100.00;98733.69;5054347;28;20062;-87
2023/01/14 15:24:36;;;;;;;;;;;;;;;7.52;100.00;98734.41;5052915;28;19959;-87
2023/01/14 15:27:05;;;;;;;;;;;;;;;7.55;100.00;98740.38;5054229;28;19917;-84
2023/01/14 15:29:33;;;;;;;;;;;;;;;7.59;100.00;98725.28;5054211;28;20420;-84
2023/01/14 15:32:17;;;;;;;;;;;;;;;7.61;100.00;98737.47;5053368;28;19920;-88
2023/01/14 15:34:47;;;;;;;;;;;;;;;7.64;100.00;98736.44;5029666;28;20391;-85
2023/01/14 15:37:26;;;;;;;;;;;;;;;7.67;100.00;98725.75;5035597;28;19921;-86
2023/01/14 15:39:51;;;;;;;;;;;;;;;7.72;100.00;98722.91;5015135;28;19964;-85
2023/01/14 15:42:20;;;;;;;;;;;;;;;7.75;100.00;98720.97;5049355;28;19963;-84
2023/01/14 15:44:46;;;;;;;;;;;;;;;7.78;100.00;98715.53;5053655;28;19917;-85
2023/01/14 15:47:12;;;;;;;;;;;;;;;7.81;100.00;98715.41;5047100;28;19973;-84
2023/01/14 15:49:38;;;;;;;;;;;;;;;7.84;100.00;98719.69;5047675;28;20019;-83
2023/01/14 15:52:06;;;;;;;;;;;;;;;7.86;100.00;98714.34;5042103;28;19963;-82
2023/01/14 15:54:35;;;;;;;;;;;;;;;7.91;100.00;98714.97;5035804;28;19917;-85
2023/01/14 15:57:27;;;;;;;;;;;;;;;7.96;100.00;98715.59;5041597;28;20689;-87
2023/01/14 16:00:13;;;;;;;;;;;;;;;7.95;100.00;98712.09;5048713;28;19924;-83
2023/01/14 16:02:38;;;;;;;;;;;;;;;8.03;100.00;98693.25;5036017;28;19991;-86
2023/01/14 16:05:20;;;;;;;;;;;;;;;8.06;100.00;98690.47;5036036;28;20400;-84
2023/01/14 16:07:46;;;;;;;;;;;;;;;8.09;100.00;98687.69;5038347;28;20355;-84
2023/01/14 16:10:12;;;;;;;;;;;;;;;8.14;100.00;98679.53;5035449;28;19967;-84
2023/01/14 16:12:37;;;;;;;;;;;;;;;8.14;100.00;98677.75;5016000;28;19983;-87
2023/01/14 16:15:05;;;;;;;;;;;;;;;8.17;100.00;98669.66;5027108;28;20373;-85
2023/01/14 16:17:31;;;;;;;;;;;;;;;8.19;100.00;98673.06;5031523;28;19917;-85
2023/01/14 16:19:58;;;;;;;;;;;;;;;8.21;100.00;98672.16;5053229;28;19917;-84
2023/01/14 16:22:23;;;;;;;;;;;;;;;8.25;100.00;98668.41;5050643;28;19924;-84
2023/01/14 16:24:49;;;;;;;;;;;;;;;8.24;100.00;98661.44;5041793;28;19917;-86
2023/01/14 16:27:22;;;;;;;;;;;;;;;8.28;100.00;98657.69;5036343;28;19921;-84
2023/01/14 16:29:47;;;;;;;;;;;;;;;8.29;100.00;98657.63;5040784;28;20353;-85
2023/01/14 16:32:12;;;;;;;;;;;;;;;8.33;100.00;98647.78;5051208;28;19964;-86
2023/01/14 16:34:40;;;;;;;;;;;;;;;8.32;100.00;98643.44;5048465;28;19917;-85
2023/01/14 16:37:05;;;;;;;;;;;;;;;8.37;100.00;98639.59;5049997;28;20015;-84
2023/01/14 16:39:38;;;;;;;;;;;;;;;8.38;100.00;98645.75;5052643;28;19952;-84
2023/01/14 16:42:04;;;;;;;;;;;;;;;8.43;100.00;98638.47;5053712;28;19920;-84
2023/01/14 16:44:30;;;;;;;;;;;;;;;8.41;100.00;98639.44;5033030;28;20288;-85
2023/01/14 16:46:55;;;;;;;;;;;;;;;8.48;100.00;98632.94;5035044;28;19927;-84
2023/01/14 16:49:20;;;;;;;;;;;;;;;8.47;100.00;98625.97;5026021;28;20334;-88
2023/01/14 16:51:48;;;;;;;;;;;;;;;8.50;100.00;98626.66;5042981;28;19951;-86
2023/01/14 16:54:15;;;;;;;;;;;;;;;8.49;100.00;98611.75;5030340;28;19913;-87
2023/01/14 16:56:41;;;;;;;;;;;;;;;8.48;100.00;98614.47;5035951;28;19925;-89
2023/01/14 16:59:06;;;;;;;;;;;;;;;8.53;100.00;98613.28;5042053;28;19939;-86
2023/01/14 17:01:33;;;;;;;;;;;;;;;8.57;100.00;98602.56;5037687;28;19917;-89
2023/01/14 17:03:59;;;;;;;;;;;;;;;8.56;100.00;98611.44;5052919;28;19925;-89
2023/01/14 17:06:24;;;;;;;;;;;;;;;8.59;100.00;98606.84;5047473;28;19987;-86
2023/01/14 17:08:49;;;;;;;;;;;;;;;8.61;100.00;98598.81;5037486;28;19918;-87
2023/01/14 17:13:58;;;;;;;;;;;;;;;8.23;100.00;98612.22;5052216;28;19931;-88
2023/01/14 17:16:23;;;;;;;;;;;;;;;7.17;100.00;98610.44;5048520;28;20031;-90
2023/01/14 17:18:49;;;;;;;;;;;;;;;6.69;100.00;98613.50;5044798;28;19961;-93
2023/01/14 17:21:14;;;;;;;;;;;;;;;6.45;100.00;98606.72;5043257;28;19932;-84
2023/01/14 17:23:40;;;;;;;;;;;;;;;6.33;100.00;98601.09;5037698;28;19917;-88
2023/01/14 17:26:09;;;;;;;;;;;;;;;6.25;100.00;98590.03;5017267;28;19964;-88
2023/01/14 17:28:35;;;;;;;;;;;;;;;6.16;100.00;98593.09;5045244;28;19927;-88
2023/01/14 17:31:04;;;;;;;;;;;;;;;6.10;100.00;98594.19;5050022;28;19990;-85
2023/01/14 17:33:30;;;;;;;;;;;;;;;5.99;100.00;98586.78;5020919;28;19938;-88
2023/01/14 17:35:57;;;;;;;;;;;;;;;5.96;100.00;98583.38;5047807;28;20290;-93
2023/01/14 17:38:23;;;;;;;;;;;;;;;5.88;100.00;98588.97;5034796;28;19967;-86
2023/01/14 17:40:48;;;;;;;;;;;;;;;5.82;100.00;98583.97;5051137;28;19924;-90
2023/01/14 17:43:13;;;;;;;;;;;;;;;5.79;100.00;98590.25;5047405;28;19921;-85
2023/01/14 17:45:38;;;;;;;;;;;;;;;5.75;100.00;98588.66;5036396;28;20372;-86
2023/01/14 17:48:09;;;;;;;;;;;;;;;5.71;100.00;98583.56;5018864;28;19921;-91
2023/01/14 17:50:35;;;;;;;;;;;;;;;5.66;100.00;98581.13;5018762;28;19921;-83
2023/01/14 17:53:00;;;;;;;;;;;;;;;5.60;100.00;98577.00;5035982;28;19940;-84
2023/01/14 17:55:25;;;;;;;;;;;;;;;5.58;100.00;98572.72;5034591;28;19917;-84
2023/01/14 17:57:50;;;;;;;;;;;;;;;5.58;100.00;98570.94;5018516;28;19921;-83
2023/01/14 18:00:17;;;;;;;;;;;;;;;5.53;100.00;98572.91;5035849;28;19925;-83
2023/01/14 18:02:42;;;;;;;;;;;;;;;5.54;100.00;98571.16;5036100;28;19917;-84
2023/01/14 18:05:08;;;;;;;;;;;;;;;5.51;100.00;98566.03;5022517;28;19927;-84
2023/01/14 18:07:33;;;;;;;;;;;;;;;5.51;100.00;98574.75;5051700;28;20012;-87
2023/01/14 18:09:59;;;;;;;;;;;;;;;5.53;100.00;98572.06;5039713;28;19924;-85
2023/01/14 18:12:25;;;;;;;;;;;;;;;5.46;100.00;98574.09;5036472;28;19925;-86
2023/01/14 18:14:50;;;;;;;;;;;;;;;5.50;100.00;98562.53;5017895;28;19921;-85
2023/01/14 18:17:15;;;;;;;;;;;;;;;5.42;100.00;98564.63;5024489;28;19936;-87
2023/01/14 18:19:41;;;;;;;;;;;;;;;5.36;100.00;98564.88;5045339;28;19928;-90
2023/01/14 18:22:06;;;;;;;;;;;;;;;5.31;100.00;98564.22;5036212;28;20299;-89
2023/01/14 18:24:31;;;;;;;;;;;;;;;5.26;100.00;98561.78;5045161;28;20499;-87
2023/01/14 18:26:57;;;;;;;;;;;;;;;5.31;100.00;98559.81;5034692;28;20419;-88
2023/01/14 18:29:22;;;;;;;;;;;;;;;5.30;100.00;98554.63;5037754;28;20441;-87
2023/01/14 18:31:48;;;;;;;;;;;;;;;5.24;100.00;98551.31;5028877;28;19929;-90
2023/01/14 18:34:13;;;;;;;;;;;;;;;5.28;100.00;98547.66;5044418;28;19924;-91
2023/01/14 18:36:42;;;;;;;;;;;;;;;5.18;100.00;98548.94;5055278;28;19948;-88
2023/01/14 18:39:16;;;;;;;;;;;;;;;6.03;100.00;98541.94;5037635;28;19916;-84
2023/01/14 18:41:44;;;;;;;;;;;;;;;5.36;100.00;98547.38;5035826;28;19995;-84
2023/01/14 18:44:09;;;;;;;;;;;;;;;5.16;100.00;98542.06;5046687;28;20379;-84
2023/01/14 18:46:34;;;;;;;;;;;;;;;5.08;100.00;98539.75;5054778;28;19963;-84
2023/01/14 18:49:00;;;;;;;;;;;;;;;5.03;100.00;98531.22;5023683;28;20364;-86
2023/01/14 18:51:26;;;;;;;;;;;;;;;5.03;100.00;98533.84;5044077;28;19917;-86
2023/01/14 18:53:52;;;;;;;;;;;;;;;5.08;100.00;98526.63;5023442;28;19921;-86
2023/01/14 18:56:19;;;;;;;;;;;;;;;4.99;100.00;98524.34;5026859;28;19921;-86
2023/01/14 18:59:07;;;;;;;;;;;;;;;4.95;100.00;98523.63;5052931;28;19938;-86
2023/01/14 19:01:33;;;;;;;;;;;;;;;4.87;100.00;98523.09;5054608;28;19917;-85
2023/01/14 19:04:01;;;;;;;;;;;;;;;4.86;100.00;98514.34;5032050;28;19921;-84
2023/01/14 19:06:27;;;;;;;;;;;;;;;4.86;100.00;98509.09;5047302;28;19943;-88
2023/01/14 19:08:52;;;;;;;;;;;;;;;4.85;100.00;98517.91;5035116;28;19944;-92
2023/01/14 19:14:04;;;;;;;;;;;;;;;4.89;100.00;98511.59;5055062;28;19987;-90
2023/01/14 19:16:29;;;;;;;;;;;;;;;4.83;100.00;98513.63;5037249;28;19956;-91
2023/01/14 19:18:55;;;;;;;;;;;;;;;4.80;100.00;98504.06;5047926;28;19928;-86
2023/01/14 19:21:23;;;;;;;;;;;;;;;5.63;100.00;98492.78;5044340;28;20426;-89
2023/01/14 19:24:04;;;;;;;;;;;;;;;6.12;100.00;98494.19;5031253;28;19921;-92
2023/01/14 19:26:31;;;;;;;;;;;;;;;6.40;100.00;98487.66;5033168;28;19921;-88
2023/01/14 19:28:56;;;;;;;;;;;;;;;6.58;100.00;98486.81;5045489;28;19928;-89
2023/01/14 19:34:40;;;;;;;;;;;;;;;6.88;100.00;98486.28;5016272;28;19917;-86
2023/01/14 19:37:05;;;;;;;;;;;;;;;6.96;100.00;98462.22;5029030;28;19921;-86
2023/01/14 19:39:30;;;;;;;;;;;;;;;7.09;100.00;98466.78;5043276;28;19966;-88
2023/01/14 19:41:56;;;;;;;;;;;;;;;7.11;100.00;98461.44;5037430;28;20289;-87
2023/01/14 19:44:22;;;;;;;;;;;;;;;7.15;100.00;98462.13;5040593;28;19921;-85
2023/01/14 19:46:49;;;;;;;;;;;;;;;7.21;100.00;98460.06;5039120;28;19921;-87
2023/01/14 19:49:16;;;;;;;;;;;;;;;7.26;100.00;98454.56;5051090;28;19917;-84
2023/01/14 19:51:42;;;;;;;;;;;;;;;7.30;100.00;98455.25;5046912;28;19925;-86
2023/01/14 19:54:07;;;;;;;;;;;;;;;7.38;100.00;98451.28;5048085;28;19940;-88
2023/01/14 19:56:33;;;;;;;;;;;;;;;7.43;100.00;98456.31;5047845;28;19921;-85
2023/01/14 19:59:12;;;;;;;;;;;;;;;7.46;100.00;98456.16;5051278;28;19962;-89
2023/01/14 20:01:37;;;;;;;;;;;;;;;7.52;100.00;98455.00;5019998;28;19917;-86
2023/01/14 20:04:04;;;;;;;;;;;;;;;7.55;100.00;98460.13;5046798;28;19923;-89
2023/01/14 20:06:30;;;;;;;;;;;;;;;7.55;100.00;98449.59;5041722;28;19924;-88